Time;durP1;ratioP1;P1;durP2;ratioP2;P2;SDS_P1;SDS_P2;PMS_P1;PMS_P2;Temp;Humidity;BMP_temperature;BMP_pressure;BME280_temperature;BME280_humidity;BME280_pressure;Samples;Min_cycle;Max_cycle;Signal;HPM_P1;HPM_P2
2021/12/16 00:02:26;;;;;;;20.10;10.18;;;;;;;2.96;88.32;99124.41;5048402;28;20053;-57
2021/12/16 00:07:49;;;;;;;17.60;9.20;;;;;;;2.88;88.31;99114.53;5046883;28;20037;-55
2021/12/16 00:10:25;;;;;;;17.65;9.13;;;;;;;2.90;88.42;99123.22;5047486;28;20060;-54
2021/12/16 00:32:33;;;;;;;15.07;8.07;;;;;;;2.81;88.27;99113.47;5038352;28;20037;-57
2021/12/16 00:34:48;;;;;;;17.13;8.20;;;;;;;2.85;88.15;99112.16;5041899;28;20095;-57
2021/12/16 00:37:17;;;;;;;15.30;8.18;;;;;;;2.86;88.41;99120.03;5046410;28;20053;-57
2021/12/16 00:39:44;;;;;;;18.63;9.55;;;;;;;2.83;88.53;99109.63;5044979;28;20510;-57
2021/12/16 00:42:25;;;;;;;18.38;9.35;;;;;;;2.77;88.91;99107.59;5046074;28;20408;-56
2021/12/16 00:47:34;;;;;;;20.27;10.60;;;;;;;2.67;89.29;99110.38;5041875;28;20080;-55
2021/12/16 00:56:09;;;;;;;18.15;9.77;;;;;;;2.68;89.33;99112.06;5044860;28;20045;-56
2021/12/16 00:58:43;;;;;;;14.55;7.90;;;;;;;2.68;88.80;99106.69;5031638;28;20048;-56
2021/12/16 01:02:11;;;;;;;13.43;7.10;;;;;;;2.70;88.99;99112.72;5027959;28;20047;-52
2021/12/16 01:42:38;;;;;;;20.58;10.18;;;;;;;2.68;89.17;99127.25;5036029;28;20048;-57
2021/12/16 01:50:29;;;;;;;18.23;9.95;;;;;;;2.62;88.95;99135.91;5043084;28;20051;-54
2021/12/16 01:55:52;;;;;;;19.33;9.32;;;;;;;2.66;89.59;99130.13;5026568;28;20554;-56
2021/12/16 01:58:23;;;;;;;15.98;8.45;;;;;;;2.72;88.60;99129.47;5045174;28;20487;-55
2021/12/16 02:01:12;;;;;;;17.40;10.32;;;;;;;2.66;88.58;99122.09;5030272;28;20079;-56
2021/12/16 02:03:46;;;;;;;18.67;9.70;;;;;;;2.73;88.58;99124.97;5038956;28;20040;-55
2021/12/16 02:06:40;;;;;;;16.48;8.85;;;;;;;2.85;87.72;99117.50;5043187;28;20837;-56
2021/12/16 02:09:22;;;;;;;14.88;7.43;;;;;;;2.81;87.75;99122.34;5041232;28;20092;-56
2021/12/16 02:36:27;;;;;;;11.00;6.18;;;;;;;2.77;87.68;99112.97;5022779;28;20133;-55
2021/12/16 02:39:24;;;;;;;9.98;5.50;;;;;;;2.87;87.40;99104.78;5029819;28;20044;-57
2021/12/16 02:41:57;;;;;;;14.38;7.72;;;;;;;2.94;87.01;99111.19;5042176;28;20144;-54
2021/12/16 02:49:44;;;;;;;10.55;6.25;;;;;;;2.74;87.72;99113.25;5043546;28;20053;-56
2021/12/16 02:52:12;;;;;;;12.45;6.75;;;;;;;2.81;87.60;99113.47;5039569;28;20433;-54
2021/12/16 02:54:39;;;;;;;12.82;7.10;;;;;;;2.76;87.70;99110.44;5043775;28;20088;-56
2021/12/16 02:57:07;;;;;;;13.57;6.65;;;;;;;2.69;88.50;99107.56;5042306;28;20060;-54
2021/12/16 02:59:37;;;;;;;11.27;6.43;;;;;;;2.73;88.16;99098.22;5049569;28;20036;-55
2021/12/16 03:02:10;;;;;;;15.70;7.38;;;;;;;2.73;88.23;99104.38;5035826;28;20401;-55
2021/12/16 03:04:42;;;;;;;13.48;6.75;;;;;;;2.69;88.28;99111.06;5044207;28;20041;-57
2021/12/16 03:07:12;;;;;;;12.77;7.28;;;;;;;2.65;88.37;99107.00;5046901;28;20040;-56
2021/12/16 03:15:31;;;;;;;13.60;7.15;;;;;;;2.78;88.16;99111.09;5032187;28;20041;-56
2021/12/16 03:18:23;;;;;;;13.70;7.10;;;;;;;2.84;87.87;99113.16;5040402;28;20045;-55
2021/12/16 03:20:56;;;;;;;15.75;7.68;;;;;;;2.88;87.70;99100.28;5048165;28;20443;-54
2021/12/16 03:23:45;;;;;;;17.25;9.13;;;;;;;2.70;88.14;99091.31;5059550;28;20725;-57
2021/12/16 03:34:59;;;;;;;14.48;8.23;;;;;;;2.73;88.20;99099.03;5050670;28;20079;-57
2021/12/16 03:37:28;;;;;;;16.38;8.65;;;;;;;2.79;88.29;99100.25;5034137;28;20055;-57
2021/12/16 03:40:05;;;;;;;17.52;9.30;;;;;;;2.67;88.42;99102.34;5029163;28;20068;-57
2021/12/16 03:42:38;;;;;;;15.50;8.18;;;;;;;2.72;88.74;99101.88;5046073;28;20044;-56
2021/12/16 03:48:27;;;;;;;14.23;7.78;;;;;;;3.06;86.62;99108.25;5004327;28;20071;-57
2021/12/16 03:50:55;;;;;;;13.18;7.18;;;;;;;3.16;86.25;99108.13;5024662;28;20126;-57
2021/12/16 03:53:25;;;;;;;15.82;8.07;;;;;;;2.95;86.90;99110.19;5029227;28;20068;-56
2021/12/16 03:55:52;;;;;;;13.93;6.65;;;;;;;2.93;87.20;99114.88;5031500;28;20079;-57
2021/12/16 03:58:19;;;;;;;14.13;7.20;;;;;;;2.91;87.19;99114.19;5049262;28;20040;-57
2021/12/16 04:01:00;;;;;;;13.23;6.82;;;;;;;3.04;86.98;99115.59;5047311;28;20041;-57
2021/12/16 04:03:28;;;;;;;14.13;6.97;;;;;;;3.14;86.11;99119.00;5029825;28;20107;-54
2021/12/16 04:05:56;;;;;;;15.70;7.45;;;;;;;2.96;86.64;99116.41;5044124;28;20044;-57
2021/12/16 04:08:23;;;;;;;14.52;6.95;;;;;;;2.86;87.25;99114.69;5027685;28;20053;-56
2021/12/16 04:11:06;;;;;;;13.80;6.82;;;;;;;2.98;86.91;99117.91;5044800;28;20419;-53
2021/12/16 04:13:55;;;;;;;12.60;6.72;;;;;;;3.14;86.28;99121.66;5016492;28;20139;-57
2021/12/16 04:16:36;;;;;;;12.38;6.30;;;;;;;3.11;86.37;99120.16;5042496;28;20052;-57
2021/12/16 04:19:09;;;;;;;14.25;7.55;;;;;;;2.99;86.80;99114.22;5028121;28;20068;-56
2021/12/16 04:21:44;;;;;;;14.13;7.80;;;;;;;2.88;87.26;99119.88;5029711;28;20098;-56
2021/12/16 04:24:11;;;;;;;15.88;7.60;;;;;;;2.95;87.38;99120.88;5037316;28;20032;-55
2021/12/16 04:26:39;;;;;;;16.08;7.95;;;;;;;2.99;86.90;99130.28;5031105;28;20041;-54
2021/12/16 04:29:08;;;;;;;16.10;7.07;;;;;;;3.04;86.57;99131.63;5044384;28;20087;-51
2021/12/16 04:31:37;;;;;;;13.32;6.22;;;;;;;3.08;86.70;99127.66;5028358;28;20045;-54
2021/12/16 04:34:05;;;;;;;13.48;6.15;;;;;;;3.20;86.17;99136.22;5043956;28;20111;-56
2021/12/16 04:36:36;;;;;;;12.02;5.82;;;;;;;3.16;86.49;99124.19;5039299;28;20045;-53
2021/12/16 04:39:09;;;;;;;14.52;5.75;;;;;;;3.19;85.79;99137.22;5044260;28;20048;-54
2021/12/16 04:41:37;;;;;;;13.48;6.18;;;;;;;3.27;85.91;99141.81;5026390;28;20088;-54
2021/12/16 04:44:08;;;;;;;13.82;6.43;;;;;;;3.24;85.72;99134.91;5035833;28;20075;-57
2021/12/16 04:46:35;;;;;;;;;;;;;;;3.20;85.67;99139.75;5044078;28;20049;-56
2021/12/16 04:49:04;;;;;;;12.82;5.65;;;;;;;3.05;86.18;99136.00;5047572;28;19952;-57
2021/12/16 04:51:40;;;;;;;12.18;5.70;;;;;;;3.02;86.58;99141.69;5026835;28;20045;-56
2021/12/16 04:54:08;;;;;;;12.30;5.35;;;;;;;3.12;87.15;99145.91;5035414;28;20120;-56
2021/12/16 04:56:37;;;;;;;12.65;6.70;;;;;;;3.21;86.37;99145.97;5034967;28;20037;-53
2021/12/16 04:59:10;;;;;;;11.90;5.40;;;;;;;3.19;86.76;99147.94;5043382;28;20096;-56
2021/12/16 05:01:43;;;;;;;9.57;5.22;;;;;;;3.10;86.42;99153.25;5024042;28;20501;-57
2021/12/16 05:04:10;;;;;;;11.95;5.78;;;;;;;2.94;87.06;99150.47;5035420;28;20064;-55
2021/12/16 05:06:37;;;;;;;12.18;5.40;;;;;;;3.00;87.45;99155.22;5036005;28;20048;-54
2021/12/16 05:09:09;;;;;;;10.25;5.30;;;;;;;3.13;86.90;99157.44;5028251;28;20112;-54
2021/12/16 05:11:42;;;;;;;11.65;6.03;;;;;;;2.93;87.17;99152.34;5038520;28;20041;-57
2021/12/16 05:14:09;;;;;;;12.80;6.03;;;;;;;2.92;87.64;99148.00;5024791;28;20103;-57
2021/12/16 05:16:41;;;;;;;13.68;6.43;;;;;;;3.00;87.69;99152.53;5042960;28;20044;-56
2021/12/16 05:19:08;;;;;;;13.13;5.45;;;;;;;3.09;87.41;99159.63;5041839;28;20061;-57
2021/12/16 05:21:46;;;;;;;10.30;5.28;;;;;;;3.13;87.09;99160.13;5042705;28;20061;-57
2021/12/16 05:24:25;;;;;;;12.98;6.40;;;;;;;3.02;86.88;99161.22;5028036;28;20048;-56
2021/12/16 05:27:04;;;;;;;11.15;6.10;;;;;;;3.04;87.58;99156.56;5027523;28;20024;-57
2021/12/16 05:29:31;;;;;;;11.48;5.82;;;;;;;2.99;87.29;99159.72;5041599;28;20722;-55
2021/12/16 05:32:01;;;;;;;12.13;5.72;;;;;;;3.09;87.68;99161.44;5026933;28;20051;-57
2021/12/16 05:34:28;;;;;;;12.65;6.10;;;;;;;3.16;86.65;99167.84;5043650;28;20041;-56
2021/12/16 05:36:55;;;;;;;13.68;6.18;;;;;;;3.16;86.91;99170.50;5026629;28;20127;-55
2021/12/16 05:39:24;;;;;;;14.00;6.13;;;;;;;3.11;87.12;99175.50;5024085;28;20053;-57
2021/12/16 05:42:05;;;;;;;;;;;;;;;3.24;86.82;99181.28;5042636;28;20095;-54
2021/12/16 05:44:32;;;;;;;13.27;6.10;;;;;;;3.23;85.75;99192.13;5044164;28;19931;-53
2021/12/16 05:46:59;;;;;;;11.93;5.75;;;;;;;3.07;87.62;99193.75;5028779;28;20528;-54
2021/12/16 05:49:25;;;;;;;14.38;6.25;;;;;;;3.08;87.25;99192.72;5044781;28;20037;-53
2021/12/16 05:51:52;;;;;;;13.57;6.70;;;;;;;3.12;87.98;99194.09;5043246;28;20458;-57
2021/12/16 05:54:21;;;;;;;13.80;6.47;;;;;;;3.16;87.27;99205.31;5026769;28;20131;-58
2021/12/16 05:56:58;;;;;;;12.95;7.05;;;;;;;3.04;87.18;99199.41;5036459;28;20400;-58
2021/12/16 05:59:25;;;;;;;12.77;6.40;;;;;;;2.88;88.13;99194.78;5047546;28;20037;-58
2021/12/16 06:01:52;;;;;;;15.90;7.72;;;;;;;2.96;88.46;99194.00;5047016;28;20128;-58
2021/12/16 06:04:25;;;;;;;14.68;6.90;;;;;;;2.96;87.82;99202.88;5053627;28;20045;-58
2021/12/16 06:06:55;;;;;;;12.57;6.82;;;;;;;3.04;87.78;99198.53;5026621;28;20037;-58
2021/12/16 06:09:22;;;;;;;13.48;6.45;;;;;;;3.15;86.74;99194.75;5040560;28;20092;-57
2021/12/16 06:11:51;;;;;;;15.32;7.78;;;;;;;3.05;87.86;99200.22;5048635;28;20045;-58
2021/12/16 06:27:45;;;;;;;13.38;6.38;;;;;;;3.27;86.40;99187.31;5043476;28;20048;-58
2021/12/16 06:30:16;;;;;;;15.27;7.22;;;;;;;3.35;85.84;99193.53;5042375;28;20049;-55
2021/12/16 06:32:43;;;;;;;12.90;6.60;;;;;;;3.27;86.19;99198.03;5044238;28;20045;-57
2021/12/16 06:35:11;;;;;;;14.13;7.60;;;;;;;3.30;86.11;99201.22;5044870;28;20483;-56
2021/12/16 06:37:38;;;;;;;13.00;6.18;;;;;;;3.35;86.08;99208.75;5043734;28;20496;-56
2021/12/16 06:40:15;;;;;;;13.85;6.80;;;;;;;3.44;85.64;99204.28;5035041;28;20458;-56
2021/12/16 06:43:16;;;;;;;11.40;6.28;;;;;;;3.61;84.63;99199.84;5006995;28;20057;-57
2021/12/16 06:45:47;;;;;;;36.58;17.88;;;;;;;3.36;85.57;99211.28;5043176;28;20056;-57
2021/12/16 06:48:19;;;;;;;15.73;7.25;;;;;;;3.20;86.27;99203.16;5048422;28;20103;-55
2021/12/16 06:51:03;;;;;;;16.25;8.20;;;;;;;3.19;86.43;99202.34;5047995;28;20048;-56
2021/12/16 06:53:44;;;;;;;12.48;6.38;;;;;;;3.37;85.89;99207.63;5048867;28;20037;-54
2021/12/16 06:56:18;;;;;;;17.25;8.68;;;;;;;3.31;85.54;99210.91;5046207;28;20045;-56
2021/12/16 06:58:49;;;;;;;16.98;8.55;;;;;;;3.15;86.47;99205.47;5048913;28;20669;-55
2021/12/16 07:01:38;;;;;;;20.92;10.95;;;;;;;2.96;87.49;99202.88;5048377;28;20049;-55
2021/12/16 07:04:08;;;;;;;19.25;9.45;;;;;;;2.86;88.21;99212.81;5053325;28;20036;-56
2021/12/16 07:06:36;;;;;;;23.83;12.40;;;;;;;2.93;87.99;99213.88;5046331;28;20091;-57
2021/12/16 07:09:10;;;;;;;16.13;8.00;;;;;;;2.99;87.93;99207.06;5047215;28;20040;-54
2021/12/16 07:11:41;;;;;;;19.80;9.48;;;;;;;3.02;87.27;99212.09;5053566;28;20123;-54
2021/12/16 07:14:15;;;;;;;18.63;10.48;;;;;;;2.98;87.73;99208.91;5050690;28;20071;-55
2021/12/16 07:16:51;;;;;;;15.77;7.55;;;;;;;3.20;86.94;99220.06;5047906;28;20041;-55
2021/12/16 07:19:18;;;;;;;15.88;7.30;;;;;;;3.17;86.74;99220.38;5047552;28;20471;-56
2021/12/16 07:21:46;;;;;;;16.23;7.50;;;;;;;3.14;87.32;99222.53;5047220;28;20037;-57
2021/12/16 07:24:16;;;;;;;14.75;6.95;;;;;;;3.14;87.12;99219.84;5048305;28;20909;-55
2021/12/16 07:26:43;;;;;;;12.55;6.45;;;;;;;3.15;86.87;99219.72;5048182;28;20983;-56
2021/12/16 07:29:10;;;;;;;17.13;7.55;;;;;;;3.24;87.06;99225.94;5046396;28;20052;-54
2021/12/16 07:31:39;;;;;;;14.52;7.30;;;;;;;3.30;86.83;99230.66;5050803;28;20041;-57
2021/12/16 07:34:07;;;;;;;16.77;7.35;;;;;;;3.37;85.84;99236.22;5052015;28;20049;-58
2021/12/16 07:36:36;;;;;;;14.50;7.00;;;;;;;3.58;84.74;99226.97;5047290;28;20068;-53
2021/12/16 07:39:06;;;;;;;13.15;6.50;;;;;;;3.63;84.32;99248.75;5047490;28;20045;-58
2021/12/16 07:41:34;;;;;;;25.15;10.30;;;;;;;3.59;84.56;99244.69;5046521;28;20099;-55
2021/12/16 07:44:10;;;;;;;22.20;9.48;;;;;;;3.58;84.43;99249.22;5038298;28;20619;-58
2021/12/16 07:46:40;;;;;;;13.25;6.65;;;;;;;3.55;84.93;99249.56;5036671;28;20508;-60
2021/12/16 07:49:10;;;;;;;14.17;7.20;;;;;;;3.57;84.35;99252.06;5038846;28;20037;-60
2021/12/16 07:51:38;;;;;;;13.98;6.55;;;;;;;3.54;84.85;99255.88;5040788;28;20744;-60
2021/12/16 07:54:07;;;;;;;14.85;7.22;;;;;;;3.61;85.61;99258.78;5042404;28;20041;-59
2021/12/16 07:56:34;;;;;;;15.65;7.25;;;;;;;3.48;85.12;99260.06;5040602;28;20045;-59
2021/12/16 07:59:00;;;;;;;16.70;7.28;;;;;;;3.56;85.28;99266.44;5045103;28;20102;-62
2021/12/16 08:01:27;;;;;;;13.98;6.45;;;;;;;3.59;84.39;99263.44;5044175;28;20075;-62
2021/12/16 08:03:55;;;;;;;12.55;6.65;;;;;;;3.68;84.46;99261.66;5043155;28;20305;-63
2021/12/16 08:06:25;;;;;;;16.17;6.50;;;;;;;3.82;83.85;99268.25;5041448;28;20048;-61
2021/12/16 08:08:57;;;;;;;13.38;6.55;;;;;;;3.87;83.03;99276.66;5043802;28;20049;-62
2021/12/16 08:11:26;;;;;;;14.55;7.00;;;;;;;3.71;83.97;99283.59;5043811;28;20056;-61
2021/12/16 08:13:53;;;;;;;15.40;6.68;;;;;;;3.67;84.53;99287.59;5042919;28;20049;-62
2021/12/16 08:16:22;;;;;;;15.65;7.55;;;;;;;3.75;84.60;99293.00;5043904;28;20041;-63
2021/12/16 08:18:50;;;;;;;13.63;6.60;;;;;;;3.59;84.80;99292.91;5041543;28;20037;-63
2021/12/16 08:21:17;;;;;;;26.90;13.98;;;;;;;3.52;85.84;99298.06;5042477;28;20057;-60
2021/12/16 08:23:44;;;;;;;12.77;6.70;;;;;;;3.61;85.46;99301.66;5040261;28;20052;-63
2021/12/16 08:26:12;;;;;;;14.68;7.45;;;;;;;3.68;85.32;99294.63;5045019;28;20496;-63
2021/12/16 08:28:39;;;;;;;14.15;6.70;;;;;;;3.67;85.29;99306.34;5043520;28;20041;-64
2021/12/16 08:31:07;;;;;;;15.93;7.10;;;;;;;3.75;85.43;99301.03;5044801;28;20099;-65
2021/12/16 08:33:33;;;;;;;18.42;7.70;;;;;;;3.73;85.10;99296.84;5044556;28;20037;-63
2021/12/16 08:36:00;;;;;;;15.20;6.07;;;;;;;3.77;84.91;99292.84;5039962;28;20115;-59
2021/12/16 08:38:27;;;;;;;11.43;5.68;;;;;;;3.84;84.25;99299.22;5043094;28;20045;-60
2021/12/16 08:41:01;;;;;;;12.60;6.10;;;;;;;3.83;84.79;99297.56;5043415;28;20107;-60
2021/12/16 08:43:28;;;;;;;16.38;7.70;;;;;;;3.69;85.16;99304.34;5042491;28;20053;-57
2021/12/16 08:45:55;;;;;;;13.48;7.20;;;;;;;3.62;85.56;99301.47;5044835;28;20053;-60
2021/12/16 08:48:22;;;;;;;13.57;7.13;;;;;;;3.69;85.83;99304.34;5045093;28;20049;-62
2021/12/16 08:50:50;;;;;;;16.67;8.25;;;;;;;3.55;86.72;99311.16;5043969;28;20045;-62
2021/12/16 08:53:19;;;;;;;21.20;9.77;;;;;;;3.57;85.96;99301.13;5043525;28;20049;-56
2021/12/16 08:55:49;;;;;;;11.38;5.93;;;;;;;3.71;85.56;99302.38;5042293;28;20431;-62
2021/12/16 08:58:16;;;;;;;19.13;9.07;;;;;;;3.64;85.51;99301.31;5043007;28;20048;-59
2021/12/16 09:00:51;;;;;;;25.40;10.63;;;;;;;3.73;85.72;99302.22;5043232;28;20087;-61
2021/12/16 09:03:18;;;;;;;18.40;9.23;;;;;;;3.82;85.46;99305.75;5043359;28;20492;-61
2021/12/16 09:05:45;;;;;;;12.48;6.53;;;;;;;3.94;83.75;99314.38;5045260;28;20071;-60
2021/12/16 09:08:12;;;;;;;16.45;8.48;;;;;;;3.83;84.47;99316.31;5042166;28;20051;-60
2021/12/16 09:10:39;;;;;;;29.67;13.15;;;;;;;3.81;84.49;99314.81;5040846;28;20045;-62
2021/12/16 09:13:12;;;;;;;22.63;11.27;;;;;;;3.71;84.89;99312.22;5045279;28;20040;-60
2021/12/16 09:15:48;;;;;;;13.85;6.20;;;;;;;3.85;84.60;99316.16;5041987;28;20094;-61
2021/12/16 09:18:17;;;;;;;15.80;8.27;;;;;;;3.84;84.70;99320.66;5043986;28;20045;-62
2021/12/16 09:20:44;;;;;;;22.73;12.60;;;;;;;3.74;85.14;99306.56;5038816;28;20049;-63
2021/12/16 09:23:12;;;;;;;17.55;9.63;;;;;;;3.73;85.13;99318.28;5044515;28;20048;-61
2021/12/16 09:25:42;;;;;;;17.40;8.23;;;;;;;3.75;85.19;99317.13;5040780;28;20053;-60
2021/12/16 09:28:09;;;;;;;18.10;8.77;;;;;;;3.75;85.19;99330.53;5037633;28;20408;-60
2021/12/16 09:30:37;;;;;;;22.98;10.77;;;;;;;3.82;85.33;99327.19;5043539;28;20041;-62
2021/12/16 09:33:07;;;;;;;16.48;8.45;;;;;;;3.94;84.59;99328.59;5042767;28;20053;-62
2021/12/16 09:35:37;;;;;;;19.73;11.77;;;;;;;4.01;85.13;99334.16;5042470;28;20044;-62
2021/12/16 09:38:07;;;;;;;27.52;16.20;;;;;;;4.11;84.51;99334.88;5043794;28;20037;-57
2021/12/16 09:40:39;;;;;;;24.38;10.88;;;;;;;4.15;84.06;99340.75;5043646;28;20099;-60
2021/12/16 09:43:05;;;;;;;18.08;8.70;;;;;;;4.11;84.25;99334.88;5041455;28;20048;-61
2021/12/16 09:45:53;;;;;;;34.70;18.25;;;;;;;4.25;83.84;99333.44;5038521;28;20177;-60
2021/12/16 09:48:20;;;;;;;14.50;7.68;;;;;;;4.44;82.76;99336.84;5052147;28;20056;-60
2021/12/16 09:50:47;;;;;;;13.95;7.47;;;;;;;4.58;81.79;99342.56;5047647;28;20067;-60
2021/12/16 09:53:13;;;;;;;16.77;7.32;;;;;;;4.54;82.04;99340.19;5041748;28;20044;-62
2021/12/16 09:55:43;;;;;;;12.10;5.68;;;;;;;4.74;81.64;99337.22;5044912;28;20037;-61
2021/12/16 09:58:10;;;;;;;13.40;6.40;;;;;;;4.65;82.34;99347.09;5039238;28;20053;-63
2021/12/16 10:00:37;;;;;;;10.65;6.07;;;;;;;4.69;82.17;99345.75;5040917;28;20072;-62
2021/12/16 10:03:05;;;;;;;14.43;7.03;;;;;;;4.80;82.54;99347.28;5042615;28;20041;-62
2021/12/16 10:05:34;;;;;;;13.65;7.47;;;;;;;4.87;82.10;99354.69;5043514;28;20045;-62
2021/12/16 10:08:05;;;;;;;14.60;8.00;;;;;;;4.80;82.00;99355.34;5041623;28;20040;-62
2021/12/16 10:10:32;;;;;;;13.88;6.85;;;;;;;4.84;82.04;99350.50;5041359;28;20045;-62
2021/12/16 10:13:01;;;;;;;12.15;6.43;;;;;;;4.63;82.81;99353.63;5037446;28;20435;-62
2021/12/16 10:18:11;;;;;;;9.20;5.47;;;;;;;4.68;83.11;99362.03;5043900;28;20048;-62
2021/12/16 10:20:53;;;;;;;12.23;5.63;;;;;;;4.97;82.37;99354.56;5044612;28;20505;-63
2021/12/16 10:23:41;;;;;;;37.10;13.73;;;;;;;5.20;81.07;99341.31;5046178;28;20056;-59
2021/12/16 10:26:18;;;;;;;40.33;16.50;;;;;;;5.39;79.88;99350.00;5043363;28;20102;-59
2021/12/16 10:28:47;;;;;;;19.63;8.23;;;;;;;5.45;79.29;99342.09;5047043;28;20056;-62
2021/12/16 10:31:14;;;;;;;11.40;5.45;;;;;;;5.13;81.08;99343.81;5043867;28;20049;-62
2021/12/16 10:33:47;;;;;;;11.25;6.15;;;;;;;5.21;80.28;99351.03;5043872;28;20043;-59
2021/12/16 10:36:17;;;;;;;11.00;6.18;;;;;;;5.15;80.43;99349.00;5045224;28;20136;-58
2021/12/16 10:38:49;;;;;;;10.05;5.65;;;;;;;4.98;80.90;99350.84;5045099;28;20033;-59
2021/12/16 10:41:21;;;;;;;22.17;11.18;;;;;;;5.00;80.92;99349.69;5045769;28;20045;-60
2021/12/16 10:44:17;;;;;;;10.82;5.60;;;;;;;5.20;80.17;99342.13;5048163;28;20067;-60
2021/12/16 10:46:44;;;;;;;12.05;7.00;;;;;;;5.06;80.85;99340.94;5036107;28;20056;-60
2021/12/16 10:49:14;;;;;;;12.18;6.18;;;;;;;5.10;80.24;99349.53;5045340;28;20037;-60
2021/12/16 10:51:52;;;;;;;10.13;5.75;;;;;;;5.03;81.24;99343.97;5039600;28;20493;-59
2021/12/16 10:54:20;;;;;;;12.02;6.75;;;;;;;5.04;81.05;99344.78;5044993;28;20091;-62
2021/12/16 10:57:09;;;;;;;10.77;5.80;;;;;;;5.16;80.45;99351.53;5045093;28;20037;-59
2021/12/16 10:59:47;;;;;;;9.98;5.25;;;;;;;5.37;79.96;99354.69;5042737;28;20045;-60
2021/12/16 11:02:18;;;;;;;10.07;6.13;;;;;;;5.52;78.94;99336.88;5044801;28;20044;-60
2021/12/16 11:05:02;;;;;;;10.45;6.28;;;;;;;5.53;79.19;99337.75;5045343;28;20054;-61
2021/12/16 11:07:31;;;;;;;10.98;6.18;;;;;;;5.22;80.18;99347.31;5044011;28;20067;-61
2021/12/16 11:10:07;;;;;;;11.52;6.47;;;;;;;5.47;79.42;99340.09;5046804;28;20048;-59
2021/12/16 11:12:34;;;;;;;11.18;6.50;;;;;;;5.43;78.84;99341.47;5046507;28;20049;-59
2021/12/16 11:15:08;;;;;;;11.82;6.15;;;;;;;5.21;79.78;99349.16;5041275;28;20041;-59
2021/12/16 11:17:39;;;;;;;11.65;6.25;;;;;;;5.18;79.93;99344.16;5043747;28;20098;-60
2021/12/16 11:20:15;;;;;;;11.90;5.95;;;;;;;5.26;80.01;99348.66;5042228;28;20055;-62
2021/12/16 11:22:45;;;;;;;11.40;6.35;;;;;;;5.25;79.42;99348.84;5043438;28;20040;-62
2021/12/16 11:25:18;;;;;;;13.23;6.75;;;;;;;5.24;80.06;99342.66;5036285;28;20049;-62
2021/12/16 11:27:49;;;;;;;11.95;6.00;;;;;;;5.21;79.92;99354.53;5042810;28;20040;-64
2021/12/16 11:30:34;;;;;;;11.25;6.07;;;;;;;5.28;79.47;99349.34;5034593;28;20056;-62
2021/12/16 11:33:22;;;;;;;10.90;5.78;;;;;;;5.34;79.27;99354.03;5033897;28;20060;-61
2021/12/16 11:36:06;;;;;;;10.07;5.63;;;;;;;5.45;79.17;99354.69;5041432;28;20053;-62
2021/12/16 11:38:48;;;;;;;12.30;6.10;;;;;;;5.30;79.38;99351.84;5038887;28;20037;-62
2021/12/16 11:41:37;;;;;;;47.67;17.98;;;;;;;5.34;79.17;99350.50;5043794;28;20565;-62
2021/12/16 11:44:25;;;;;;;14.10;6.75;;;;;;;5.22;79.82;99358.06;5041009;28;20071;-62
2021/12/16 11:46:57;;;;;;;12.50;6.63;;;;;;;5.19;79.81;99353.03;5045904;28;20045;-63
2021/12/16 11:49:35;;;;;;;11.95;6.65;;;;;;;5.16;79.97;99354.19;5044163;28;20037;-59
2021/12/16 11:52:22;;;;;;;12.63;6.95;;;;;;;5.25;79.73;99355.06;5043546;28;20055;-62
2021/12/16 11:54:55;;;;;;;11.73;6.32;;;;;;;5.32;79.22;99353.38;5039335;28;20551;-59
2021/12/16 11:57:33;;;;;;;12.25;7.28;;;;;;;5.05;80.88;99347.31;5042518;28;20049;-61
2021/12/16 12:00:03;;;;;;;13.55;7.38;;;;;;;5.08;81.28;99347.00;5030228;28;20045;-62
2021/12/16 12:02:43;;;;;;;12.38;6.75;;;;;;;5.17;80.56;99345.13;5040370;28;20102;-59
2021/12/16 12:05:31;;;;;;;11.70;6.85;;;;;;;5.31;79.45;99343.63;5038754;28;20116;-59
2021/12/16 12:08:00;;;;;;;13.55;7.32;;;;;;;5.20;79.96;99344.00;5038778;28;20040;-59
2021/12/16 12:10:53;;;;;;;11.32;5.90;;;;;;;5.30;79.73;99344.63;5045838;28;20511;-59
2021/12/16 12:13:22;;;;;;;11.10;6.55;;;;;;;5.28;79.71;99346.66;5044166;28;20075;-62
2021/12/16 12:16:12;;;;;;;11.40;6.32;;;;;;;5.36;80.32;99337.75;5043106;28;20045;-60
2021/12/16 12:18:41;;;;;;;11.35;6.30;;;;;;;5.24;80.54;99339.09;5043589;28;20047;-62
2021/12/16 12:21:14;;;;;;;11.95;6.45;;;;;;;5.19;80.95;99337.75;5034271;28;20048;-59
2021/12/16 12:23:42;;;;;;;12.95;7.28;;;;;;;5.20;80.53;99322.50;5033225;28;20052;-59
2021/12/16 12:26:15;;;;;;;12.50;7.00;;;;;;;5.12;80.96;99334.06;5039224;28;20594;-58
2021/12/16 12:28:44;;;;;;;12.90;6.88;;;;;;;5.26;80.32;99323.66;5037685;28;20029;-58
2021/12/16 12:31:12;;;;;;;12.55;6.32;;;;;;;5.44;80.08;99312.72;5038072;28;20413;-58
2021/12/16 12:33:39;;;;;;;10.98;5.72;;;;;;;5.56;79.55;99316.72;5045900;28;20049;-59
2021/12/16 12:37:45;;;;;;;11.50;6.35;;;;;;;5.85;78.18;99309.94;5058283;28;20386;-63
2021/12/16 12:40:26;;;;;;;11.52;6.55;;;;;;;5.77;78.95;99307.28;5047067;28;20044;-63
2021/12/16 12:42:56;;;;;;;11.30;6.60;;;;;;;5.70;79.11;99298.22;5040532;28;20048;-60
2021/12/16 12:45:28;;;;;;;11.52;7.32;;;;;;;5.73;78.29;99301.41;5052723;28;20041;-63
2021/12/16 12:47:58;;;;;;;13.73;7.65;;;;;;;5.81;78.65;99305.06;5039900;28;20053;-63
2021/12/16 12:50:35;;;;;;;12.75;6.70;;;;;;;5.89;78.32;99296.16;5043156;28;20644;-58
2021/12/16 12:53:11;;;;;;;11.48;6.78;;;;;;;5.96;78.23;99295.28;5045762;28;20045;-60
2021/12/16 12:55:38;;;;;;;9.82;6.25;;;;;;;6.02;76.98;99293.75;5053184;28;20033;-58
2021/12/16 12:58:09;;;;;;;12.25;7.00;;;;;;;6.11;77.37;99303.47;5051110;28;20056;-62
2021/12/16 13:00:51;;;;;;;9.70;6.00;;;;;;;5.79;77.52;99294.47;5042611;28;20052;-64
2021/12/16 13:03:28;;;;;;;14.93;7.18;;;;;;;5.83;78.24;99303.88;5046371;28;20291;-62
2021/12/16 13:06:17;;;;;;;10.90;6.25;;;;;;;5.77;78.80;99309.97;5040251;28;20112;-62
2021/12/16 13:08:49;;;;;;;11.07;6.40;;;;;;;5.91;78.07;99312.94;5044041;28;20562;-64
2021/12/16 13:11:26;;;;;;;10.18;6.50;;;;;;;5.89;78.14;99318.50;5051794;28;20091;-61
2021/12/16 13:14:25;;;;;;;10.48;5.97;;;;;;;5.88;78.36;99318.66;5051355;28;20033;-61
2021/12/16 13:28:16;;;;;;;8.63;5.35;;;;;;;6.10;75.92;99315.25;5043835;28;20041;-62
2021/12/16 13:30:59;;;;;;;8.77;5.60;;;;;;;6.22;74.50;99314.84;5038588;28;20049;-63
2021/12/16 13:33:38;;;;;;;9.65;6.57;;;;;;;6.01;75.54;99318.94;5039697;28;20040;-61
2021/12/16 13:36:07;;;;;;;9.63;5.68;;;;;;;6.17;73.94;99311.84;5042163;28;20067;-61
2021/12/16 13:38:39;;;;;;;12.15;5.15;;;;;;;5.91;74.29;99307.56;5044969;28;20052;-60
2021/12/16 13:41:13;;;;;;;8.50;4.78;;;;;;;5.64;75.21;99307.81;5040101;28;20041;-60
2021/12/16 13:43:55;;;;;;;10.82;5.20;;;;;;;5.62;75.61;99308.97;5041345;28;20033;-60
2021/12/16 13:46:44;;;;;;;10.65;6.30;;;;;;;5.81;75.66;99305.06;5042562;28;20699;-60
2021/12/16 13:58:19;;;;;;;9.82;5.70;;;;;;;6.10;76.71;99307.19;5028900;28;20094;-62
2021/12/16 14:01:14;;;;;;;8.90;5.18;;;;;;;6.17;75.62;99312.72;5025848;28;20060;-62
2021/12/16 14:03:50;;;;;;;10.25;6.15;;;;;;;6.12;76.15;99323.16;5028164;28;20041;-62
2021/12/16 14:06:50;;;;;;;10.18;6.57;;;;;;;6.02;76.63;99323.31;5030024;28;20047;-62
2021/12/16 14:09:24;;;;;;;11.15;6.60;;;;;;;6.05;76.92;99324.84;5024254;28;20575;-62
2021/12/16 14:13:02;;;;;;;13.40;7.85;;;;;;;6.13;76.49;99321.28;5032244;28;20042;-62
2021/12/16 14:15:16;;;;;;;13.35;9.10;;;;;;;6.01;77.33;99321.63;5034389;28;20049;-64
2021/12/16 14:45:46;;;;;;;10.95;6.82;;;;;;;5.77;79.08;99357.50;5034494;28;20512;-63
2021/12/16 14:48:32;;;;;;;14.02;8.07;;;;;;;5.65;79.57;99354.34;5034889;28;20041;-63
2021/12/16 14:51:11;;;;;;;14.48;7.82;;;;;;;5.59;79.65;99356.72;5032047;28;20562;-59
2021/12/16 14:53:46;;;;;;;12.27;7.13;;;;;;;5.51;80.20;99359.41;5030453;28;20452;-61
2021/12/16 14:56:18;;;;;;;12.50;7.50;;;;;;;5.33;80.25;99364.94;5032141;28;20041;-57
2021/12/16 14:58:50;;;;;;;13.23;7.30;;;;;;;5.37;79.92;99360.06;5031182;28;20512;-63
2021/12/16 15:01:25;;;;;;;14.35;7.53;;;;;;;5.24;80.70;99352.53;5027514;28;20660;-64
2021/12/16 15:03:52;;;;;;;16.77;9.73;;;;;;;5.26;81.23;99354.03;5027837;28;20045;-60
2021/12/16 15:06:31;;;;;;;21.98;14.63;;;;;;;5.36;80.58;99358.41;5025711;28;20045;-62
2021/12/16 15:11:48;;;;;;;14.55;8.32;;;;;;;5.44;79.85;99342.28;5034474;28;20053;-60
2021/12/16 15:14:34;;;;;;;13.32;7.95;;;;;;;5.33;80.34;99352.38;5032927;28;20107;-59
2021/12/16 15:17:19;;;;;;;13.77;7.35;;;;;;;5.26;80.38;99359.41;5029850;28;20037;-59